createdAt,value
2022-12-11T00:00:47.814Z,1.85
2022-12-11T00:03:16.581Z,1.83
2022-12-11T00:05:43.934Z,1.90
2022-12-11T00:08:12.339Z,1.80
2022-12-11T00:10:39.175Z,1.78
2022-12-11T00:13:05.801Z,1.84
2022-12-11T00:15:32.412Z,1.86
2022-12-11T00:17:59.005Z,1.82
2022-12-11T00:20:25.479Z,1.94
2022-12-11T00:22:52.064Z,1.91
2022-12-11T00:25:18.689Z,1.83
2022-12-11T00:27:46.904Z,1.85
2022-12-11T00:30:14.260Z,1.82
2022-12-11T00:32:40.943Z,1.84
2022-12-11T00:35:08.072Z,1.98
2022-12-11T00:37:34.977Z,1.91
2022-12-11T00:40:01.655Z,2.01
2022-12-11T00:42:28.197Z,1.90
2022-12-11T00:44:54.781Z,1.88
2022-12-11T00:47:21.402Z,1.96
2022-12-11T00:49:49.976Z,1.93
2022-12-11T00:52:17.196Z,1.89
2022-12-11T00:54:43.824Z,1.90
2022-12-11T00:57:10.316Z,1.97
2022-12-11T00:59:36.834Z,2.02
2022-12-11T01:02:03.511Z,2.07
2022-12-11T01:04:30.075Z,2.08
2022-12-11T01:06:56.634Z,2.11
2022-12-11T01:09:23.252Z,2.12
2022-12-11T01:11:49.822Z,2.08
2022-12-11T01:14:16.310Z,2.03
2022-12-11T01:16:42.931Z,2.04
2022-12-11T01:19:09.406Z,2.15
2022-12-11T01:21:35.991Z,2.12
2022-12-11T01:24:02.691Z,2.17
2022-12-11T01:26:29.336Z,2.15
2022-12-11T01:28:55.807Z,2.16
2022-12-11T01:31:22.405Z,2.17
2022-12-11T01:33:48.973Z,2.23
2022-12-11T01:36:19.229Z,2.28
2022-12-11T01:38:47.486Z,2.21
2022-12-11T01:41:15.889Z,2.20
2022-12-11T01:44:04.946Z,2.24
2022-12-11T01:46:33.495Z,2.22
2022-12-11T01:49:02.235Z,2.20
2022-12-11T01:51:31.547Z,2.20
2022-12-11T01:54:02.020Z,2.17
2022-12-11T01:56:31.006Z,2.18
2022-12-11T01:59:01.862Z,2.18
2022-12-11T02:01:35.853Z,2.21
2022-12-11T02:04:02.936Z,2.22
2022-12-11T02:06:32.245Z,2.20
2022-12-11T02:08:59.522Z,2.23
2022-12-11T02:11:37.149Z,2.25
2022-12-11T02:14:08.361Z,2.22
2022-12-11T02:17:12.099Z,2.19
2022-12-11T02:20:02.786Z,2.17
2022-12-11T02:22:52.235Z,2.27
2022-12-11T02:25:31.991Z,2.29
2022-12-11T02:28:16.936Z,2.16
2022-12-11T02:30:51.384Z,2.11
2022-12-11T02:33:23.533Z,2.21
2022-12-11T02:35:50.752Z,2.20
2022-12-11T02:38:24.945Z,2.29
2022-12-11T02:40:55.573Z,2.30
2022-12-11T02:43:23.427Z,2.22
2022-12-11T02:45:51.442Z,2.21
2022-12-11T02:48:20.983Z,2.28
2022-12-11T02:50:50.322Z,2.33
2022-12-11T02:53:20.815Z,2.30
2022-12-11T02:55:51.251Z,2.31
2022-12-11T02:58:22.558Z,2.39
2022-12-11T03:00:49.302Z,2.34
2022-12-11T03:03:16.329Z,2.27
2022-12-11T03:05:43.091Z,2.36
2022-12-11T03:08:10.288Z,2.43
2022-12-11T03:10:37.975Z,2.42
2022-12-11T03:13:05.094Z,2.44
2022-12-11T03:16:00.377Z,2.25
2022-12-11T03:18:58.916Z,2.30
2022-12-11T03:21:38.429Z,2.20
2022-12-11T03:24:11.709Z,2.30
2022-12-11T03:26:54.495Z,2.37
2022-12-11T03:29:39.258Z,2.39
2022-12-11T03:32:19.598Z,2.49
2022-12-11T03:35:02.875Z,2.48
2022-12-11T03:37:34.704Z,2.52
2022-12-11T03:40:07.321Z,2.55
2022-12-11T03:42:35.136Z,2.58
2022-12-11T03:45:04.580Z,2.54
2022-12-11T03:47:32.405Z,2.60
2022-12-11T03:50:00.042Z,2.64
2022-12-11T03:52:28.937Z,2.66
2022-12-11T03:54:59.560Z,2.72
2022-12-11T03:57:30.997Z,2.73
2022-12-11T03:59:58.426Z,2.73
2022-12-11T04:02:25.056Z,2.72
2022-12-11T04:04:51.704Z,2.67
2022-12-11T04:07:18.536Z,2.59
2022-12-11T04:09:44.979Z,2.66
2022-12-11T04:12:11.775Z,2.63
2022-12-11T04:14:38.279Z,2.57
2022-12-11T04:17:05.151Z,2.46
2022-12-11T04:19:31.812Z,2.46
2022-12-11T04:21:58.334Z,2.53
2022-12-11T04:24:24.887Z,2.61
2022-12-11T04:26:51.510Z,2.61
2022-12-11T04:29:17.985Z,2.60
2022-12-11T04:31:44.469Z,2.66
2022-12-11T04:34:11.108Z,2.62
2022-12-11T04:36:37.983Z,2.56
2022-12-11T04:39:05.783Z,2.52
2022-12-11T04:41:32.394Z,2.44
2022-12-11T04:43:58.943Z,2.29
2022-12-11T04:46:25.629Z,2.32
2022-12-11T04:48:57.407Z,2.24
2022-12-11T04:51:25.054Z,2.23
2022-12-11T04:53:51.622Z,2.26
2022-12-11T04:56:18.192Z,2.27
2022-12-11T04:58:45.614Z,2.34
2022-12-11T05:01:18.559Z,2.37
2022-12-11T05:03:46.226Z,2.40
2022-12-11T05:06:13.202Z,2.37
2022-12-11T05:08:42.302Z,2.47
2022-12-11T05:11:11.770Z,2.43
2022-12-11T05:13:38.657Z,2.42
2022-12-11T05:16:06.607Z,2.47
2022-12-11T05:18:33.480Z,2.50
2022-12-11T05:21:02.897Z,2.55
2022-12-11T05:23:30.224Z,2.63
2022-12-11T05:25:59.977Z,2.65
2022-12-11T05:28:29.180Z,2.60
2022-12-11T05:31:00.207Z,2.68
2022-12-11T05:33:28.553Z,2.73
2022-12-11T05:35:55.449Z,2.74
2022-12-11T05:38:22.112Z,2.81
2022-12-11T05:40:57.756Z,2.72
2022-12-11T05:43:24.847Z,2.77
2022-12-11T05:45:51.397Z,2.75
2022-12-11T05:48:18.025Z,2.70
2022-12-11T05:50:44.610Z,2.77
2022-12-11T05:53:11.308Z,2.75
2022-12-11T05:55:37.858Z,2.77
2022-12-11T05:58:04.379Z,2.79
2022-12-11T06:00:35.877Z,2.75
2022-12-11T06:03:02.925Z,2.72
2022-12-11T06:05:29.532Z,2.81
2022-12-11T06:07:56.015Z,2.80
2022-12-11T06:10:22.767Z,2.73
2022-12-11T06:12:49.371Z,2.68
2022-12-11T06:15:15.855Z,2.74
2022-12-11T06:17:42.489Z,2.80
2022-12-11T06:20:09.191Z,2.67
2022-12-11T06:22:35.694Z,2.71
2022-12-11T06:25:02.247Z,2.87
2022-12-11T06:27:28.716Z,2.90
2022-12-11T06:29:55.238Z,2.92
2022-12-11T06:32:21.958Z,2.92
2022-12-11T06:34:48.462Z,3.03
2022-12-11T06:37:14.991Z,3.05
2022-12-11T06:39:41.621Z,3.04
2022-12-11T06:42:08.086Z,3.10
2022-12-11T06:44:34.545Z,2.97
2022-12-11T06:47:01.103Z,2.89
2022-12-11T06:49:27.704Z,3.01
2022-12-11T06:51:54.322Z,3.10
2022-12-11T06:54:20.903Z,3.02
2022-12-11T06:56:47.400Z,2.78
2022-12-11T06:59:13.916Z,2.89
2022-12-11T07:01:40.492Z,2.87
2022-12-11T07:04:06.991Z,2.83
2022-12-11T07:06:33.509Z,2.79
2022-12-11T07:09:00.590Z,2.64
2022-12-11T07:11:27.814Z,2.73
2022-12-11T07:13:54.419Z,2.85
2022-12-11T07:16:23.142Z,2.85
2022-12-11T07:18:51.368Z,2.90
2022-12-11T07:21:20.303Z,2.96
2022-12-11T07:23:47.818Z,3.08
2022-12-11T07:26:16.921Z,2.95
2022-12-11T07:28:44.156Z,2.85
2022-12-11T07:31:16.648Z,2.71
2022-12-11T07:33:43.616Z,2.73
2022-12-11T07:36:12.395Z,2.73
2022-12-11T07:38:39.399Z,2.67
2022-12-11T07:41:09.492Z,2.73
2022-12-11T07:43:36.672Z,2.89
2022-12-11T07:46:09.489Z,2.92
2022-12-11T07:48:37.171Z,3.03
2022-12-11T07:51:19.257Z,3.00
2022-12-11T07:53:48.137Z,2.98
2022-12-11T07:56:15.467Z,3.07
2022-12-11T07:58:42.418Z,3.20
2022-12-11T08:01:26.892Z,3.16
2022-12-11T08:03:54.702Z,3.28
2022-12-11T08:06:28.923Z,3.24
2022-12-11T08:08:57.630Z,3.22
2022-12-11T08:11:24.888Z,3.30
2022-12-11T08:13:51.722Z,3.31
2022-12-11T08:16:19.002Z,3.43
2022-12-11T08:18:46.925Z,3.59
2022-12-11T08:21:19.545Z,3.71
2022-12-11T08:23:46.457Z,3.74
2022-12-11T08:26:19.502Z,3.66
2022-12-11T08:28:46.283Z,3.69
2022-12-11T08:31:15.041Z,3.67
2022-12-11T08:33:42.341Z,3.74
2022-12-11T08:36:11.734Z,3.79
2022-12-11T08:38:38.396Z,3.74
2022-12-11T08:41:16.457Z,3.75
2022-12-11T08:43:43.747Z,3.55
2022-12-11T08:46:11.939Z,3.70
2022-12-11T08:48:40.292Z,3.56
2022-12-11T08:51:09.014Z,3.55
2022-12-11T08:53:35.567Z,3.64
2022-12-11T08:56:07.995Z,3.70
2022-12-11T08:58:34.506Z,3.45
2022-12-11T09:01:05.504Z,3.53
2022-12-11T09:03:32.813Z,3.46
2022-12-11T09:05:59.325Z,3.42
2022-12-11T09:08:26.401Z,3.46
2022-12-11T09:10:53.083Z,3.40
2022-12-11T09:13:19.630Z,3.47
2022-12-11T09:15:46.167Z,3.37
2022-12-11T09:18:12.931Z,3.45
2022-12-11T09:20:39.478Z,3.37
2022-12-11T09:23:05.993Z,3.38
2022-12-11T09:25:32.540Z,3.42
2022-12-11T09:27:59.063Z,3.51
2022-12-11T09:30:25.599Z,3.46
2022-12-11T09:32:52.154Z,3.44
2022-12-11T09:35:18.618Z,3.26
2022-12-11T09:37:45.091Z,3.22
2022-12-11T09:40:12.423Z,2.98
2022-12-11T09:42:57.359Z,3.11
2022-12-11T09:45:24.101Z,3.13
2022-12-11T09:47:53.440Z,3.03
2022-12-11T09:50:33.883Z,3.03
2022-12-11T09:53:00.348Z,3.04
2022-12-11T09:55:39.639Z,3.09
2022-12-11T09:58:27.859Z,3.11
2022-12-11T10:01:13.066Z,3.20
2022-12-11T10:03:45.476Z,3.27
2022-12-11T10:06:22.326Z,3.38
2022-12-11T10:09:18.473Z,3.39
2022-12-11T10:12:00.370Z,3.39
2022-12-11T10:15:03.887Z,3.36
2022-12-11T10:17:37.143Z,3.16
2022-12-11T10:20:24.127Z,3.18
2022-12-11T10:22:52.731Z,3.11
2022-12-11T10:25:29.057Z,3.18
2022-12-11T10:27:56.167Z,3.16
2022-12-11T10:30:25.404Z,3.18
2022-12-11T10:33:27.318Z,3.22
2022-12-11T10:35:56.196Z,3.17
2022-12-11T10:38:29.119Z,3.23
2022-12-11T10:41:17.877Z,3.24
2022-12-11T10:43:46.897Z,3.29
2022-12-11T10:46:20.224Z,3.26
2022-12-11T10:48:52.031Z,3.16
2022-12-11T10:51:19.512Z,3.20
2022-12-11T10:53:55.140Z,3.22
2022-12-11T10:56:30.513Z,3.08
2022-12-11T10:58:59.137Z,3.03
2022-12-11T11:01:32.549Z,2.87
2022-12-11T11:04:07.080Z,2.87
2022-12-11T11:06:33.932Z,2.93
2022-12-11T11:09:02.044Z,2.79
2022-12-11T11:11:37.877Z,2.86
2022-12-11T11:14:18.479Z,2.90
2022-12-11T11:16:47.877Z,2.96
2022-12-11T11:19:30.559Z,2.93
2022-12-11T11:22:02.144Z,2.92
2022-12-11T11:24:33.060Z,2.77
2022-12-11T11:27:15.212Z,2.70
2022-12-11T11:29:42.237Z,2.75
2022-12-11T11:32:19.769Z,2.68
2022-12-11T11:34:46.395Z,2.76
2022-12-11T11:37:33.319Z,2.81
2022-12-11T11:40:11.529Z,2.85
2022-12-11T11:43:00.898Z,2.88
2022-12-11T11:45:37.195Z,2.90
2022-12-11T11:48:35.740Z,2.93
2022-12-11T11:51:13.037Z,2.91
2022-12-11T11:53:39.679Z,2.89
2022-12-11T11:56:27.853Z,3.05
2022-12-11T11:59:00.002Z,2.89
2022-12-11T12:01:26.697Z,2.81
2022-12-11T12:03:54.211Z,2.72
2022-12-11T12:06:29.965Z,2.70
2022-12-11T12:09:06.644Z,2.62
2022-12-11T12:11:44.578Z,2.69
2022-12-11T12:14:51.169Z,2.66
2022-12-11T12:17:09.644Z,2.69
2022-12-11T12:20:13.147Z,2.70
2022-12-11T12:22:46.532Z,2.63
2022-12-11T12:25:27.032Z,2.57
2022-12-11T12:28:12.271Z,2.51
2022-12-11T12:31:05.245Z,2.50
2022-12-11T12:33:47.115Z,2.50
2022-12-11T12:36:30.197Z,2.43
2022-12-11T12:38:59.643Z,2.44
2022-12-11T12:42:01.351Z,2.37
2022-12-11T12:44:47.179Z,2.37
2022-12-11T12:47:17.471Z,2.37
2022-12-11T12:49:49.379Z,2.44
2022-12-11T12:52:20.887Z,2.56
2022-12-11T12:54:51.007Z,2.57
2022-12-11T12:57:17.920Z,2.49
2022-12-11T12:59:54.566Z,2.45
2022-12-11T13:02:21.156Z,2.46
2022-12-11T13:04:58.325Z,2.43
2022-12-11T13:07:30.625Z,2.45
2022-12-11T13:10:21.830Z,2.49
2022-12-11T13:12:48.714Z,2.48
2022-12-11T13:15:29.692Z,2.46
2022-12-11T13:17:56.958Z,2.49
2022-12-11T13:20:26.333Z,2.44
2022-12-11T13:23:18.785Z,2.49
2022-12-11T13:25:58.217Z,2.49
2022-12-11T13:28:29.361Z,2.45
2022-12-11T13:31:07.838Z,2.30
2022-12-11T13:33:41.390Z,2.37
2022-12-11T13:36:16.668Z,2.38
2022-12-11T13:38:55.570Z,2.33
2022-12-11T13:41:23.142Z,2.35
2022-12-11T13:43:50.623Z,2.27
2022-12-11T13:46:24.825Z,2.29
2022-12-11T13:48:59.816Z,2.24
2022-12-11T13:51:29.088Z,2.28
2022-12-11T13:54:17.530Z,2.29
2022-12-11T13:57:18.283Z,2.45
2022-12-11T13:59:55.936Z,2.30
2022-12-11T14:02:29.379Z,2.33
2022-12-11T14:04:59.202Z,2.33
2022-12-11T14:07:33.452Z,2.25
2022-12-11T14:10:15.298Z,2.21
2022-12-11T14:12:59.419Z,2.14
2022-12-11T14:15:28.085Z,2.14
2022-12-11T14:17:55.936Z,2.04
2022-12-11T14:20:26.210Z,2.12
2022-12-11T14:22:52.703Z,2.09
2022-12-11T14:25:25.575Z,2.18
2022-12-11T14:27:54.931Z,2.16
2022-12-11T14:30:28.141Z,2.24
2022-12-11T14:33:02.627Z,2.26
2022-12-11T14:35:39.337Z,2.25
2022-12-11T14:38:35.792Z,2.19
2022-12-11T14:41:13.237Z,2.16
2022-12-11T14:43:49.762Z,2.12
2022-12-11T14:46:20.293Z,2.10
2022-12-11T14:49:03.726Z,2.14
2022-12-11T14:51:35.779Z,2.18
2022-12-11T14:54:03.052Z,2.18
2022-12-11T14:56:30.781Z,2.11
2022-12-11T14:59:03.811Z,2.07
2022-12-11T15:01:33.663Z,2.09
2022-12-11T15:04:16.206Z,2.10
2022-12-11T15:06:45.418Z,2.14
2022-12-11T15:09:24.973Z,2.16
2022-12-11T15:11:54.065Z,2.23
2022-12-11T15:14:22.604Z,2.15
2022-12-11T15:16:50.519Z,2.23
2022-12-11T15:19:22.099Z,2.15
2022-12-11T15:21:49.154Z,2.25
2022-12-11T15:24:30.626Z,2.18
2022-12-11T15:26:59.374Z,2.18
2022-12-11T15:29:39.941Z,2.12
2022-12-11T15:32:09.488Z,2.24
2022-12-11T15:34:44.189Z,2.14
2022-12-11T15:37:18.903Z,2.15
2022-12-11T15:39:45.511Z,2.05
2022-12-11T15:42:16.163Z,2.00
2022-12-11T15:44:42.775Z,2.00
2022-12-11T15:47:18.579Z,1.96
2022-12-11T15:49:45.051Z,1.91
2022-12-11T15:52:11.644Z,1.95
2022-12-11T15:54:38.326Z,2.04
2022-12-11T15:57:07.640Z,2.02
2022-12-11T15:59:34.292Z,1.96
2022-12-11T16:02:00.971Z,2.03
2022-12-11T16:04:27.494Z,2.03
2022-12-11T16:06:54.074Z,2.09
2022-12-11T16:09:20.724Z,2.07
2022-12-11T16:11:47.325Z,2.12
2022-12-11T16:14:13.925Z,2.13
2022-12-11T16:16:40.521Z,2.16
2022-12-11T16:19:06.979Z,2.26
2022-12-11T16:21:33.523Z,2.28
2022-12-11T16:24:00.125Z,2.29
2022-12-11T16:26:26.815Z,2.28
2022-12-11T16:28:53.301Z,2.27
2022-12-11T16:31:19.996Z,2.26
2022-12-11T16:33:46.522Z,2.25
2022-12-11T16:36:15.634Z,2.17
2022-12-11T16:38:51.459Z,2.09
2022-12-11T16:41:20.061Z,2.19
2022-12-11T16:43:46.670Z,2.14
2022-12-11T16:46:13.254Z,2.14
2022-12-11T16:48:39.829Z,2.16
2022-12-11T16:51:06.314Z,2.20
2022-12-11T16:53:32.887Z,2.28
2022-12-11T16:55:59.440Z,2.26
2022-12-11T16:58:26.031Z,2.23
2022-12-11T17:00:52.601Z,2.23
2022-12-11T17:03:19.164Z,2.22
2022-12-11T17:05:45.684Z,2.27
2022-12-11T17:08:13.799Z,2.29
2022-12-11T17:10:41.744Z,2.28
2022-12-11T17:13:08.243Z,2.25
2022-12-11T17:15:39.877Z,2.21
2022-12-11T17:18:06.522Z,2.23
2022-12-11T17:20:33.286Z,2.35
2022-12-11T17:23:00.859Z,2.28
2022-12-11T17:25:27.320Z,2.31
2022-12-11T17:27:55.284Z,2.27
2022-12-11T17:30:22.731Z,2.30
2022-12-11T17:32:49.326Z,2.27
2022-12-11T17:35:15.870Z,2.38
2022-12-11T17:37:42.358Z,2.39
2022-12-11T17:40:09.226Z,2.38
2022-12-11T17:42:35.746Z,2.40
2022-12-11T17:45:02.411Z,2.40
2022-12-11T17:47:28.869Z,2.44
2022-12-11T17:49:55.461Z,2.51
2022-12-11T17:52:22.020Z,2.44
2022-12-11T17:54:48.502Z,2.43
2022-12-11T17:57:15.084Z,2.41
2022-12-11T17:59:41.680Z,2.45
2022-12-11T18:02:09.708Z,2.44
2022-12-11T18:04:38.399Z,2.46
2022-12-11T18:07:05.871Z,2.45
2022-12-11T18:09:33.075Z,2.46
2022-12-11T18:11:59.527Z,2.53
2022-12-11T18:14:26.115Z,2.54
2022-12-11T18:16:52.702Z,2.59
2022-12-11T18:19:19.220Z,2.46
2022-12-11T18:21:46.387Z,2.51
2022-12-11T18:24:12.887Z,2.49
2022-12-11T18:26:39.430Z,2.46
2022-12-11T18:29:06.756Z,2.51
2022-12-11T18:31:36.302Z,2.43
2022-12-11T18:34:05.609Z,2.42
2022-12-11T18:36:33.510Z,2.42
2022-12-11T18:39:00.323Z,2.40
2022-12-11T18:41:26.820Z,2.47
2022-12-11T18:43:54.946Z,2.48
2022-12-11T18:46:21.655Z,2.52
2022-12-11T18:48:48.786Z,2.53
2022-12-11T18:51:18.889Z,2.48
2022-12-11T18:53:45.907Z,2.61
2022-12-11T18:56:17.058Z,2.57
2022-12-11T18:58:44.515Z,2.61
2022-12-11T19:01:25.911Z,2.60
2022-12-11T19:04:02.038Z,2.68
2022-12-11T19:06:30.425Z,2.72
2022-12-11T19:09:00.171Z,2.76
2022-12-11T19:11:29.405Z,2.76
2022-12-11T19:13:56.688Z,2.75
2022-12-11T19:16:26.378Z,2.82
2022-12-11T19:18:53.001Z,2.89
2022-12-11T19:21:19.631Z,2.78
2022-12-11T19:23:46.460Z,2.81
2022-12-11T19:26:15.615Z,2.86
2022-12-11T19:28:42.390Z,2.92
2022-12-11T19:31:15.446Z,2.89
2022-12-11T19:33:43.021Z,2.87
2022-12-11T19:36:12.314Z,2.86
2022-12-11T19:38:40.711Z,2.85
2022-12-11T19:41:10.370Z,2.93
2022-12-11T19:43:37.023Z,2.94
2022-12-11T19:46:05.517Z,2.94
2022-12-11T19:48:32.651Z,2.89
2022-12-11T19:51:06.268Z,2.86
2022-12-11T19:53:33.630Z,2.86
2022-12-11T19:56:00.234Z,2.88
2022-12-11T19:58:28.082Z,2.88
2022-12-11T20:00:54.651Z,2.89
2022-12-11T20:03:21.381Z,2.97
2022-12-11T20:05:48.017Z,2.89
2022-12-11T20:08:43.105Z,2.89
2022-12-11T20:11:14.322Z,2.92
2022-12-11T20:13:44.020Z,2.94
2022-12-11T20:16:10.853Z,2.92
2022-12-11T20:18:37.802Z,2.93
2022-12-11T20:21:07.274Z,3.03
2022-12-11T20:23:34.599Z,2.96
2022-12-11T20:26:12.516Z,3.01
2022-12-11T20:28:39.836Z,2.98
2022-12-11T20:31:08.691Z,2.91
2022-12-11T20:33:35.270Z,3.09
2022-12-11T20:36:06.154Z,3.09
2022-12-11T20:38:34.660Z,3.03
2022-12-11T20:41:01.290Z,2.97
2022-12-11T20:43:28.226Z,3.03
2022-12-11T20:45:54.846Z,3.04
2022-12-11T20:48:21.425Z,3.05
2022-12-11T20:50:48.190Z,3.15
2022-12-11T20:53:14.815Z,3.13
2022-12-11T20:55:42.068Z,3.07
2022-12-11T20:58:09.433Z,3.10
2022-12-11T21:00:40.121Z,3.11
2022-12-11T21:03:06.698Z,3.03
2022-12-11T21:05:33.394Z,3.05
2022-12-11T21:07:59.979Z,3.08
2022-12-11T21:10:26.753Z,3.03
2022-12-11T21:12:53.570Z,3.09
2022-12-11T21:15:20.026Z,3.06
2022-12-11T21:17:46.564Z,3.01
2022-12-11T21:20:13.194Z,2.96
2022-12-11T21:22:39.746Z,3.01
2022-12-11T21:25:06.449Z,3.13
2022-12-11T21:27:33.205Z,3.02
2022-12-11T21:30:00.147Z,3.05
2022-12-11T21:32:26.683Z,3.05
2022-12-11T21:34:53.319Z,3.08
2022-12-11T21:37:19.857Z,3.12
2022-12-11T21:39:46.336Z,3.03
2022-12-11T21:42:12.923Z,3.04
2022-12-11T21:47:26.085Z,3.02
2022-12-11T21:49:53.359Z,3.02
2022-12-11T21:52:19.906Z,3.00
2022-12-11T21:54:46.459Z,2.97
2022-12-11T21:57:12.950Z,2.94
2022-12-11T21:59:39.555Z,2.94
2022-12-11T22:02:06.437Z,2.79
2022-12-11T22:04:33.120Z,2.78
2022-12-11T22:06:59.583Z,2.82
2022-12-11T22:09:26.302Z,2.80
2022-12-11T22:11:58.163Z,2.83
2022-12-11T22:14:25.609Z,2.73
2022-12-11T22:16:52.347Z,2.72
2022-12-11T22:19:18.817Z,2.64
2022-12-11T22:21:45.249Z,2.70
2022-12-11T22:24:11.908Z,2.63
2022-12-11T22:26:39.147Z,2.70
2022-12-11T22:29:05.744Z,2.56
2022-12-11T22:31:32.582Z,2.59
2022-12-11T22:33:59.250Z,2.51
2022-12-11T22:36:27.083Z,2.57
2022-12-11T22:38:54.291Z,2.51
2022-12-11T22:41:29.424Z,2.49
2022-12-11T22:43:58.100Z,2.52
2022-12-11T22:46:28.021Z,2.39
2022-12-11T22:48:55.161Z,2.36
2022-12-11T22:51:22.243Z,2.35
2022-12-11T22:53:48.802Z,2.22
2022-12-11T22:56:15.683Z,2.26
2022-12-11T22:58:42.531Z,2.23
2022-12-11T23:01:19.553Z,2.14
2022-12-11T23:03:46.473Z,2.15
2022-12-11T23:06:14.904Z,2.78
2022-12-11T23:08:42.082Z,2.49
2022-12-11T23:11:24.127Z,2.29
2022-12-11T23:13:51.158Z,2.38
2022-12-11T23:16:17.825Z,2.17
2022-12-11T23:18:44.679Z,2.24
2022-12-11T23:21:12.419Z,2.21
2022-12-11T23:23:39.252Z,2.23
2022-12-11T23:26:08.526Z,2.23
2022-12-11T23:28:35.067Z,2.22
2022-12-11T23:31:01.749Z,2.27
2022-12-11T23:33:28.422Z,2.14
2022-12-11T23:35:54.894Z,2.15
2022-12-11T23:38:21.400Z,2.06
2022-12-11T23:40:48.621Z,2.06
2022-12-11T23:43:15.098Z,2.15
2022-12-11T23:45:44.251Z,2.09
2022-12-11T23:48:12.102Z,2.11
2022-12-11T23:50:40.263Z,2.09
2022-12-11T23:53:06.835Z,2.05
2022-12-11T23:55:33.487Z,2.12
2022-12-11T23:57:59.939Z,2.09
